Time;durP1;ratioP1;P1;durP2;ratioP2;P2;SDS_P1;SDS_P2;PMS_P1;PMS_P2;Temp;Humidity;BMP_temperature;BMP_pressure;BME280_temperature;BME280_humidity;BME280_pressure;Samples;Min_cycle;Max_cycle;Signal;HPM_P1;HPM_P2
2022/10/14 00:01:49;;;;;;;42.77;32.93;;;11.60;99.90;;;;;;5012392;28;20668;-49
2022/10/14 00:04:16;;;;;;;42.03;32.50;;;11.30;99.90;;;;;;5012183;28;20481;-50
2022/10/14 00:06:42;;;;;;;41.50;34.20;;;11.50;99.90;;;;;;5012615;28;20444;-50
2022/10/14 00:09:10;;;;;;;40.73;32.37;;;11.60;99.90;;;;;;5011699;28;20525;-49
2022/10/14 00:11:39;;;;;;;41.90;35.30;;;11.60;99.90;;;;;;5012151;28;20471;-49
2022/10/14 00:14:08;;;;;;;41.03;33.77;;;11.50;99.90;;;;;;5011918;28;20463;-49
2022/10/14 00:16:37;;;;;;;39.07;32.73;;;11.70;99.90;;;;;;5012052;28;20491;-49
2022/10/14 00:19:04;;;;;;;37.77;31.40;;;11.40;99.90;;;;;;5011638;28;21115;-49
2022/10/14 00:21:32;;;;;;;41.30;32.93;;;11.40;99.90;;;;;;5011953;28;20437;-49
2022/10/14 00:23:59;;;;;;;37.50;32.03;;;11.50;99.90;;;;;;5011898;28;20461;-49
2022/10/14 00:26:27;;;;;;;40.40;31.80;;;11.20;99.90;;;;;;5011876;28;20447;-49
2022/10/14 00:28:55;;;;;;;37.70;30.90;;;11.30;99.90;;;;;;5010173;28;20453;-49
2022/10/14 00:31:22;;;;;;;39.70;33.90;;;11.40;99.90;;;;;;5011876;28;20467;-49
2022/10/14 00:33:49;;;;;;;42.70;35.33;;;10.80;99.90;;;;;;5011733;28;20500;-49
2022/10/14 00:36:19;;;;;;;39.70;31.67;;;11.50;99.90;;;;;;5012444;28;20539;-49
2022/10/14 00:38:46;;;;;;;40.30;31.00;;;11.10;99.90;;;;;;5010194;28;20811;-49
2022/10/14 00:41:15;;;;;;;37.23;29.17;;;10.60;99.90;;;;;;5010661;28;20445;-50
2022/10/14 00:43:59;;;;;;;37.63;30.87;;;11.40;99.90;;;;;;5010275;28;20474;-49
2022/10/14 00:46:27;;;;;;;40.47;31.57;;;11.00;99.90;;;;;;5011944;28;20445;-49
2022/10/14 00:49:00;;;;;;;41.60;31.70;;;11.70;99.90;;;;;;4994100;28;20448;-50
2022/10/14 00:51:27;;;;;;;38.87;32.13;;;11.10;99.90;;;;;;5010207;28;20455;-49
2022/10/14 00:53:54;;;;;;;36.60;28.90;;;10.70;99.90;;;;;;4994022;28;20473;-49
2022/10/14 00:56:25;;;;;;;40.63;30.83;;;11.20;99.90;;;;;;5010444;28;20444;-49
2022/10/14 00:58:52;;;;;;;40.30;31.30;;;11.10;99.90;;;;;;5011814;28;20797;-49
2022/10/14 01:01:21;;;;;;;36.80;30.30;;;11.00;99.90;;;;;;5015187;28;20438;-49
2022/10/14 01:03:48;;;;;;;40.60;33.17;;;11.60;99.90;;;;;;5013742;28;20471;-49
2022/10/14 01:06:25;;;;;;;41.37;31.97;;;10.90;99.90;;;;;;5015203;28;20440;-49
2022/10/14 01:09:00;;;;;;;39.83;30.50;;;10.60;99.90;;;;;;5013492;28;20448;-49
2022/10/14 01:11:34;;;;;;;43.33;31.80;;;10.90;99.90;;;;;;5013739;28;20453;-49
2022/10/14 01:14:09;;;;;;;40.90;30.50;;;11.10;99.90;;;;;;5015184;28;20462;-50
2022/10/14 01:16:50;;;;;;;33.30;29.27;;;10.50;99.90;;;;;;5014995;28;20930;-49
2022/10/14 01:19:39;;;;;;;39.33;31.97;;;11.00;99.90;;;;;;5013317;28;20456;-49
2022/10/14 01:22:12;;;;;;;36.97;30.03;;;10.80;99.90;;;;;;5013661;28;20441;-49
2022/10/14 01:24:49;;;;;;;42.50;29.53;;;10.80;99.90;;;;;;5013589;28;20440;-49
2022/10/14 01:27:42;;;;;;;40.73;32.80;;;11.20;99.90;;;;;;5014561;28;20440;-49
2022/10/14 01:30:13;;;;;;;34.43;28.67;;;11.00;99.90;;;;;;5014283;28;20922;-49
2022/10/14 01:33:03;;;;;;;39.03;32.43;;;10.90;99.90;;;;;;5013203;28;20508;-49
2022/10/14 01:35:41;;;;;;;35.33;28.97;;;10.80;99.90;;;;;;5013266;28;20472;-49
2022/10/14 01:38:12;;;;;;;37.77;29.80;;;10.70;99.90;;;;;;5014770;28;20488;-49
2022/10/14 01:40:46;;;;;;;41.10;29.90;;;10.80;99.90;;;;;;5013038;28;20453;-49
2022/10/14 01:43:13;;;;;;;32.43;28.30;;;11.00;99.90;;;;;;5012996;28;20798;-49
2022/10/14 01:45:43;;;;;;;35.00;28.80;;;10.60;99.90;;;;;;5013092;28;20450;-49
2022/10/14 01:48:15;;;;;;;42.40;30.70;;;10.90;99.90;;;;;;5013109;28;20450;-49
2022/10/14 01:50:46;;;;;;;38.47;29.53;;;10.70;99.90;;;;;;5013956;28;20428;-49
2022/10/14 01:53:17;;;;;;;34.40;28.60;;;10.80;99.90;;;;;;5013065;28;20546;-49
2022/10/14 01:55:47;;;;;;;39.10;30.73;;;11.00;99.90;;;;;;5014335;28;20467;-50
2022/10/14 01:58:17;;;;;;;38.10;28.70;;;11.20;99.90;;;;;;5012823;28;20457;-50
2022/10/14 02:00:46;;;;;;;38.87;29.60;;;10.50;99.90;;;;;;5012717;28;20981;-50
2022/10/14 02:03:13;;;;;;;39.03;29.97;;;10.80;99.90;;;;;;5014165;28;20468;-49
2022/10/14 02:05:44;;;;;;;35.50;29.20;;;10.80;99.90;;;;;;5012847;28;20822;-50
2022/10/14 02:08:19;;;;;;;36.40;29.13;;;10.80;99.90;;;;;;5012860;28;20483;-49
2022/10/14 02:11:00;;;;;;;36.40;28.53;;;10.60;99.90;;;;;;4996000;28;20843;-49
2022/10/14 02:13:39;;;;;;;34.43;27.70;;;10.50;99.90;;;;;;5013919;28;20480;-49
2022/10/14 02:16:17;;;;;;;40.07;28.73;;;10.40;99.90;;;;;;5012567;28;20448;-49
2022/10/14 02:18:51;;;;;;;36.60;27.50;;;10.60;99.90;;;;;;5013453;28;20436;-50
2022/10/14 02:21:23;;;;;;;34.50;26.10;;;10.60;99.90;;;;;;5013773;28;20440;-50
2022/10/14 02:23:55;;;;;;;35.67;29.50;;;11.10;99.90;;;;;;5012390;28;20461;-50
2022/10/14 02:26:24;;;;;;;30.37;26.87;;;10.70;99.90;;;;;;5012504;28;20961;-50
2022/10/14 02:28:53;;;;;;;37.87;30.23;;;10.40;99.90;;;;;;5011878;28;20451;-49
2022/10/14 02:31:22;;;;;;;37.13;29.87;;;10.00;99.90;;;;;;4996077;28;20968;-50
2022/10/14 02:33:52;;;;;;;34.30;28.67;;;10.50;99.90;;;;;;5013306;28;20484;-50
2022/10/14 02:36:24;;;;;;;39.87;29.20;;;10.40;99.90;;;;;;5012179;28;20491;-50
2022/10/14 02:38:52;;;;;;;36.87;29.73;;;10.60;99.90;;;;;;5011887;28;20832;-50
2022/10/14 02:41:22;;;;;;;37.43;29.47;;;10.60;99.90;;;;;;5013363;28;20448;-50
2022/10/14 02:43:49;;;;;;;33.77;27.20;;;10.50;99.90;;;;;;5011919;28;21009;-50
2022/10/14 02:46:19;;;;;;;32.20;27.33;;;10.40;99.90;;;;;;5012113;28;20452;-50
2022/10/14 02:48:47;;;;;;;33.53;27.17;;;10.60;99.90;;;;;;5013049;28;20433;-49
2022/10/14 02:51:14;;;;;;;37.00;28.00;;;10.70;99.90;;;;;;5011815;28;20480;-50
2022/10/14 02:53:43;;;;;;;38.90;28.50;;;10.60;99.90;;;;;;4995478;28;21027;-50
2022/10/14 02:56:11;;;;;;;36.07;28.27;;;10.50;99.90;;;;;;5013011;28;20462;-50
2022/10/14 02:58:38;;;;;;;35.30;27.10;;;11.20;99.90;;;;;;5012531;28;20444;-50
2022/10/14 03:01:04;;;;;;;28.67;24.67;;;10.60;99.90;;;;;;5012980;28;20433;-50
2022/10/14 03:03:31;;;;;;;39.20;27.10;;;10.90;99.90;;;;;;5011697;28;20902;-49
2022/10/14 03:05:59;;;;;;;38.30;28.90;;;10.90;99.90;;;;;;5011492;28;20502;-50
2022/10/14 03:08:28;;;;;;;35.47;27.17;;;10.90;99.90;;;;;;5011233;28;20848;-50
2022/10/14 03:10:56;;;;;;;37.13;27.33;;;11.00;99.90;;;;;;5011561;28;20488;-50
2022/10/14 03:13:23;;;;;;;29.80;26.07;;;10.90;99.90;;;;;;5011447;28;20571;-49
2022/10/14 03:15:50;;;;;;;32.30;25.90;;;10.70;99.90;;;;;;4994997;28;20454;-50
2022/10/14 03:18:18;;;;;;;33.83;26.83;;;10.80;99.90;;;;;;5011328;28;20508;-50
2022/10/14 03:20:47;;;;;;;27.57;24.43;;;11.00;99.90;;;;;;5010609;28;20481;-50
2022/10/14 03:23:24;;;;;;;33.07;25.50;;;11.00;99.90;;;;;;4995018;28;20464;-48
2022/10/14 03:25:53;;;;;;;30.13;25.60;;;11.10;99.90;;;;;;5011287;28;20897;-48
2022/10/14 03:28:32;;;;;;;37.97;26.77;;;10.80;99.90;;;;;;5010824;28;20941;-48
2022/10/14 03:31:17;;;;;;;29.27;22.73;;;11.00;99.90;;;;;;4994826;28;20840;-48
2022/10/14 03:33:54;;;;;;;28.53;23.23;;;11.10;99.90;;;;;;5011007;28;20838;-48
2022/10/14 03:36:20;;;;;;;32.33;23.70;;;10.40;99.90;;;;;;5012267;28;20468;-48
2022/10/14 03:38:53;;;;;;;31.17;25.80;;;10.80;99.90;;;;;;5010812;28;20465;-50
2022/10/14 03:41:42;;;;;;;35.33;24.10;;;11.10;99.90;;;;;;5011946;28;20990;-49
2022/10/14 03:44:11;;;;;;;27.90;24.90;;;11.10;99.90;;;;;;4994460;28;20466;-49
2022/10/14 03:46:42;;;;;;;29.10;23.50;;;10.50;99.90;;;;;;5011041;28;20412;-49
2022/10/14 03:49:09;;;;;;;30.77;25.43;;;11.30;99.90;;;;;;5010599;28;20547;-49
2022/10/14 03:51:36;;;;;;;30.63;26.60;;;11.20;99.90;;;;;;5011152;28;20445;-49
2022/10/14 03:54:15;;;;;;;34.83;26.27;;;11.10;99.90;;;;;;4994493;28;20489;-49
2022/10/14 03:56:41;;;;;;;32.47;25.37;;;11.50;99.90;;;;;;5011065;28;20464;-49
2022/10/14 03:59:08;;;;;;;29.20;25.23;;;11.00;99.90;;;;;;4994176;28;20463;-49
2022/10/14 04:01:36;;;;;;;34.40;25.60;;;11.30;99.90;;;;;;4994632;28;20449;-49
2022/10/14 04:04:14;;;;;;;28.53;25.40;;;11.10;99.90;;;;;;5010986;28;20565;-49
2022/10/14 04:06:40;;;;;;;38.63;34.00;;;11.10;99.90;;;;;;5010865;28;20488;-49
2022/10/14 04:09:08;;;;;;;51.50;46.57;;;11.40;99.90;;;;;;5010399;28;20878;-49
2022/10/14 04:11:40;;;;;;;55.60;49.80;;;10.90;99.90;;;;;;4994775;28;20938;-50
2022/10/14 04:14:10;;;;;;;58.47;53.00;;;11.30;99.90;;;;;;4994396;28;20562;-49
2022/10/14 04:16:45;;;;;;;56.43;50.73;;;10.90;99.90;;;;;;4994570;28;20448;-49
2022/10/14 04:19:12;;;;;;;49.00;44.33;;;10.40;99.90;;;;;;5010464;28;20445;-49
2022/10/14 04:21:41;;;;;;;44.27;39.77;;;10.90;99.90;;;;;;5010676;28;20940;-50
2022/10/14 04:24:09;;;;;;;40.53;36.40;;;10.50;99.90;;;;;;4994185;28;20503;-49
2022/10/14 04:26:43;;;;;;;41.97;36.57;;;11.00;99.90;;;;;;4994300;28;20445;-49
2022/10/14 04:29:21;;;;;;;34.70;30.20;;;10.60;99.90;;;;;;5010560;28;20909;-49
2022/10/14 04:32:03;;;;;;;36.50;28.00;;;10.90;99.90;;;;;;5010771;28;20456;-49
2022/10/14 04:34:30;;;;;;;32.30;26.03;;;11.10;99.90;;;;;;5013196;28;20486;-49
2022/10/14 04:36:57;;;;;;;45.63;40.90;;;10.60;99.90;;;;;;5014607;28;20488;-49
2022/10/14 04:39:43;;;;;;;44.03;39.67;;;10.70;99.90;;;;;;5015677;28;20491;-51
2022/10/14 04:42:12;;;;;;;36.13;30.23;;;10.80;99.90;;;;;;5014454;28;21019;-50
2022/10/14 04:44:40;;;;;;;40.33;31.33;;;10.60;99.90;;;;;;5037438;22;20511;-49
2022/10/14 04:47:07;;;;;;;42.23;37.70;;;11.00;99.90;;;;;;5013742;28;20456;-49
2022/10/14 04:49:33;;;;;;;37.80;31.30;;;10.90;99.90;;;;;;5013282;28;20449;-48
2022/10/14 04:52:08;;;;;;;42.07;35.90;;;10.70;99.90;;;;;;5015427;28;20544;-49
2022/10/14 04:54:54;;;;;;;36.90;32.97;;;10.80;99.90;;;;;;5014015;28;20948;-49
2022/10/14 04:57:33;;;;;;;40.77;33.90;;;10.80;99.90;;;;;;5013920;28;20466;-49
2022/10/14 05:00:00;;;;;;;42.93;34.37;;;10.90;99.90;;;;;;5012852;28;20461;-48
2022/10/14 05:02:52;;;;;;;38.87;32.60;;;10.50;99.90;;;;;;5013590;28;20559;-49
2022/10/14 05:05:19;;;;;;;42.33;33.93;;;10.80;99.90;;;;;;5013411;28;20479;-50
2022/10/14 05:07:50;;;;;;;36.47;30.63;;;10.60;99.90;;;;;;5013604;28;20575;-50
2022/10/14 05:10:24;;;;;;;40.70;27.53;;;11.20;99.90;;;;;;5012941;28;20830;-50
2022/10/14 05:12:52;;;;;;;35.60;26.77;;;10.80;99.90;;;;;;5012670;28;20923;-49
2022/10/14 05:15:21;;;;;;;25.50;22.10;;;10.70;99.90;;;;;;5013083;28;20548;-50
2022/10/14 05:17:58;;;;;;;37.40;28.63;;;11.20;99.90;;;;;;5013382;28;20510;-50
2022/10/14 05:20:38;;;;;;;31.67;24.37;;;10.70;99.90;;;;;;5013019;28;20468;-49
2022/10/14 05:23:05;;;;;;;34.83;26.70;;;10.90;99.90;;;;;;5013056;28;20567;-49
2022/10/14 05:25:32;;;;;;;40.13;26.37;;;10.80;99.90;;;;;;5014963;28;20432;-50
2022/10/14 05:28:00;;;;;;;26.17;21.80;;;11.00;99.90;;;;;;5013071;28;20448;-50
2022/10/14 05:30:27;;;;;;;30.57;22.80;;;11.10;99.90;;;;;;5012705;28;20465;-48
2022/10/14 05:32:54;;;;;;;30.83;22.33;;;10.90;99.90;;;;;;5012518;28;20477;-49
2022/10/14 05:35:21;;;;;;;28.23;22.33;;;11.10;99.90;;;;;;5012883;28;20480;-50
2022/10/14 05:37:48;;;;;;;33.73;22.33;;;10.80;99.90;;;;;;5012739;28;20460;-49
2022/10/14 05:40:15;;;;;;;35.23;23.00;;;11.40;99.90;;;;;;5012272;28;20543;-49
2022/10/14 05:42:41;;;;;;;29.60;23.20;;;11.30;99.90;;;;;;5012409;28;20503;-49
2022/10/14 05:45:10;;;;;;;28.00;23.37;;;11.30;99.90;;;;;;5012641;28;20465;-50
2022/10/14 05:47:44;;;;;;;34.93;24.60;;;11.10;99.90;;;;;;5012363;28;20488;-48
2022/10/14 05:50:15;;;;;;;32.20;25.07;;;11.20;99.90;;;;;;5012244;28;20447;-50
2022/10/14 05:52:45;;;;;;;33.57;22.20;;;11.40;99.90;;;;;;5012343;28;20545;-50
2022/10/14 05:55:17;;;;;;;33.40;26.33;;;11.10;99.90;;;;;;5012656;28;20438;-50
2022/10/14 05:57:45;;;;;;;31.23;25.37;;;11.70;99.90;;;;;;5012171;28;20460;-50
2022/10/14 06:00:18;;;;;;;26.70;21.77;;;11.50;99.90;;;;;;5012014;28;20949;-50
2022/10/14 06:02:49;;;;;;;26.80;21.63;;;11.40;99.90;;;;;;5012093;28;20540;-51
2022/10/14 06:05:17;;;;;;;35.00;23.20;;;11.30;99.90;;;;;;5012208;28;20537;-51
2022/10/14 06:07:44;;;;;;;24.13;20.03;;;11.50;99.90;;;;;;5012282;28;20453;-51
2022/10/14 06:10:10;;;;;;;35.30;22.73;;;11.60;99.90;;;;;;5013219;28;20507;-50
2022/10/14 06:12:37;;;;;;;24.50;21.80;;;11.60;99.90;;;;;;5012194;28;20463;-49
2022/10/14 06:15:05;;;;;;;28.90;22.23;;;11.60;99.90;;;;;;5011751;28;20582;-49
2022/10/14 06:17:33;;;;;;;27.10;20.60;;;11.70;99.90;;;;;;5011469;28;20456;-50
2022/10/14 06:20:00;;;;;;;24.50;19.40;;;11.70;99.90;;;;;;5011429;28;20970;-50
2022/10/14 06:22:27;;;;;;;24.90;20.60;;;11.50;99.90;;;;;;5013191;28;20456;-49
2022/10/14 06:24:54;;;;;;;30.37;22.27;;;12.00;99.90;;;;;;5012741;28;20454;-50
2022/10/14 06:27:21;;;;;;;29.77;22.30;;;11.80;99.90;;;;;;5012887;28;20521;-50
2022/10/14 06:29:47;;;;;;;23.77;20.93;;;11.80;99.90;;;;;;5012316;28;20438;-50
2022/10/14 06:32:14;;;;;;;31.93;22.80;;;11.70;99.90;;;;;;5012865;28;20432;-50
2022/10/14 06:34:42;;;;;;;28.53;20.77;;;12.40;99.90;;;;;;5012719;28;20481;-50
2022/10/14 06:37:08;;;;;;;29.40;21.57;;;12.20;99.90;;;;;;5012681;28;20453;-51
2022/10/14 06:39:35;;;;;;;31.73;22.63;;;12.20;99.90;;;;;;5012482;28;20445;-50
2022/10/14 06:42:02;;;;;;;30.37;22.40;;;11.80;99.90;;;;;;5012677;28;20450;-49
2022/10/14 06:44:29;;;;;;;28.30;21.90;;;11.90;99.90;;;;;;5012292;28;20470;-49
2022/10/14 06:46:55;;;;;;;25.93;19.50;;;11.90;99.90;;;;;;5010883;28;20480;-48
2022/10/14 06:49:22;;;;;;;25.13;21.33;;;11.80;99.90;;;;;;5012190;28;20442;-50
2022/10/14 06:51:50;;;;;;;26.20;20.67;;;12.20;99.90;;;;;;5012815;28;20443;-50
2022/10/14 06:54:16;;;;;;;29.33;20.73;;;12.50;99.90;;;;;;5012350;28;20468;-50
2022/10/14 06:56:43;;;;;;;25.97;21.80;;;12.20;99.90;;;;;;5011714;28;20933;-50
2022/10/14 06:59:10;;;;;;;34.03;23.80;;;12.50;99.90;;;;;;5011912;28;20441;-50
2022/10/14 07:01:37;;;;;;;31.83;24.07;;;12.20;99.90;;;;;;5012039;28;20407;-51
2022/10/14 07:04:04;;;;;;;28.50;21.13;;;12.40;99.90;;;;;;5012486;28;20464;-49
2022/10/14 07:06:31;;;;;;;34.57;25.33;;;12.50;99.90;;;;;;5011574;28;20442;-51
2022/10/14 07:08:59;;;;;;;35.83;23.00;;;12.50;99.90;;;;;;5011940;28;20448;-49
2022/10/14 07:11:26;;;;;;;32.37;20.77;;;12.40;99.90;;;;;;5010979;28;20806;-49
2022/10/14 07:13:54;;;;;;;31.27;22.17;;;12.40;99.90;;;;;;5012250;28;20489;-49
2022/10/14 07:16:21;;;;;;;33.30;22.60;;;12.70;99.90;;;;;;5012219;28;20431;-49
2022/10/14 07:18:48;;;;;;;32.77;23.40;;;13.00;99.90;;;;;;5011740;28;20516;-50
2022/10/14 07:21:15;;;;;;;26.00;22.17;;;13.10;99.90;;;;;;5011951;28;20440;-50
2022/10/14 07:23:41;;;;;;;25.30;21.63;;;12.70;99.90;;;;;;5012065;28;20457;-50
2022/10/14 07:26:09;;;;;;;27.00;23.07;;;13.00;99.90;;;;;;5012043;28;20524;-55
2022/10/14 07:28:36;;;;;;;26.40;22.50;;;12.70;99.90;;;;;;5012281;28;20446;-51
2022/10/14 07:31:04;;;;;;;30.93;23.53;;;13.00;99.90;;;;;;5010855;28;20486;-49
2022/10/14 07:33:31;;;;;;;29.20;21.87;;;12.80;99.90;;;;;;5011771;28;20439;-49
2022/10/14 07:36:01;;;;;;;29.87;22.07;;;13.20;99.90;;;;;;5011963;28;20786;-49
2022/10/14 07:38:28;;;;;;;33.00;24.30;;;13.00;99.90;;;;;;5010524;28;20490;-51
2022/10/14 07:41:00;;;;;;;28.13;22.10;;;13.10;99.90;;;;;;5012589;28;20447;-50
2022/10/14 07:43:29;;;;;;;28.20;23.60;;;12.70;99.90;;;;;;5012380;28;20488;-49
2022/10/14 07:45:59;;;;;;;35.50;24.90;;;13.40;99.90;;;;;;5011937;28;20435;-49
2022/10/14 07:48:27;;;;;;;29.90;24.93;;;12.80;99.90;;;;;;5010258;28;20949;-49
2022/10/14 07:50:54;;;;;;;36.60;22.43;;;13.20;99.90;;;;;;5011868;28;20431;-50
2022/10/14 07:53:21;;;;;;;33.25;24.00;;;12.80;99.90;;;;;;5010905;28;20426;-49
2022/10/14 07:55:51;;;;;;;32.30;21.50;;;13.90;99.90;;;;;;5010404;28;20478;-49
2022/10/14 07:58:19;;;;;;;24.03;21.37;;;13.40;99.90;;;;;;5011899;28;20424;-49
2022/10/14 08:00:47;;;;;;;31.20;21.70;;;13.40;99.90;;;;;;5011612;28;20463;-49
2022/10/14 08:03:14;;;;;;;22.27;19.33;;;13.40;99.90;;;;;;5011467;28;20549;-49
2022/10/14 08:05:41;;;;;;;30.50;20.30;;;13.60;99.90;;;;;;5011675;28;20439;-50
2022/10/14 08:08:08;;;;;;;32.43;21.57;;;13.60;99.90;;;;;;5010338;28;20522;-50
2022/10/14 08:10:35;;;;;;;25.17;20.20;;;13.60;99.90;;;;;;5011292;28;20526;-50
2022/10/14 08:13:01;;;;;;;32.00;22.83;;;13.60;99.90;;;;;;5010857;28;20554;-50
2022/10/14 08:15:29;;;;;;;27.77;21.57;;;13.80;99.90;;;;;;5011346;28;20488;-49
2022/10/14 08:17:57;;;;;;;25.13;20.80;;;13.60;99.90;;;;;;5009997;28;20803;-50
2022/10/14 08:20:23;;;;;;;31.43;21.30;;;13.90;99.90;;;;;;5010994;28;20440;-48
2022/10/14 08:22:50;;;;;;;24.67;19.93;;;13.80;99.90;;;;;;5011366;28;20470;-49
2022/10/14 08:25:17;;;;;;;28.57;23.27;;;13.90;99.90;;;;;;5011269;28;20439;-49
2022/10/14 08:27:43;;;;;;;31.47;23.43;;;13.90;99.90;;;;;;5011218;28;20465;-51
2022/10/14 08:30:11;;;;;;;27.77;23.07;;;14.10;99.90;;;;;;5011262;28;20753;-50
2022/10/14 08:32:37;;;;;;;26.67;22.37;;;13.80;99.90;;;;;;5011427;28;20506;-50
2022/10/14 08:35:07;;;;;;;33.00;22.53;;;14.00;99.90;;;;;;5011184;28;20487;-50
2022/10/14 08:37:34;;;;;;;36.87;22.77;;;14.20;99.90;;;;;;5011465;28;20659;-51
2022/10/14 08:40:00;;;;;;;28.50;22.70;;;13.90;99.90;;;;;;5010976;28;20436;-49
2022/10/14 08:42:38;;;;;;;28.10;22.10;;;14.10;99.90;;;;;;5012021;28;20436;-50
2022/10/14 08:45:10;;;;;;;30.90;22.60;;;13.80;99.90;;;;;;5011394;28;20430;-50
2022/10/14 08:47:39;;;;;;;30.43;23.90;;;14.00;99.90;;;;;;5009998;28;20454;-48
2022/10/14 08:50:20;;;;;;;25.93;22.33;;;13.40;99.90;;;;;;5010919;28;20432;-49
2022/10/14 08:52:53;;;;;;;31.20;23.50;;;14.00;99.90;;;;;;5010896;28;20439;-50
2022/10/14 08:55:27;;;;;;;33.00;22.70;;;14.00;99.90;;;;;;5011152;28;20523;-49
2022/10/14 08:57:59;;;;;;;32.67;22.90;;;14.30;99.90;;;;;;5010858;28;20445;-50
2022/10/14 09:00:27;;;;;;;28.73;22.77;;;14.60;99.90;;;;;;5009193;28;20460;-50
2022/10/14 09:02:54;;;;;;;26.70;21.40;;;14.60;99.90;;;;;;5010689;28;20462;-51
2022/10/14 09:05:25;;;;;;;22.97;20.60;;;14.50;99.90;;;;;;5011107;28;21018;-51
2022/10/14 09:07:54;;;;;;;26.30;21.67;;;14.70;99.90;;;;;;5011244;28;20435;-50
2022/10/14 09:10:30;;;;;;;23.37;19.87;;;14.70;99.90;;;;;;5010596;28;20531;-50
2022/10/14 09:13:02;;;;;;;27.17;19.23;;;15.00;99.90;;;;;;5009343;28;20478;-49
2022/10/14 09:15:35;;;;;;;27.93;20.13;;;14.90;99.90;;;;;;5009493;28;21076;-49
2022/10/14 09:18:05;;;;;;;25.77;20.03;;;15.30;99.90;;;;;;5009583;28;20460;-50
2022/10/14 09:20:33;;;;;;;24.97;20.07;;;14.90;99.90;;;;;;5013406;28;20471;-50
2022/10/14 09:23:14;;;;;;;22.90;19.90;;;14.90;99.90;;;;;;5014285;28;20456;-49
2022/10/14 09:25:47;;;;;;;25.20;20.67;;;15.30;99.90;;;;;;5014396;28;20882;-51
2022/10/14 09:28:14;;;;;;;23.43;19.77;;;15.10;99.90;;;;;;5014352;28;20460;-51
2022/10/14 09:30:41;;;;;;;24.17;19.20;;;15.10;99.90;;;;;;5013832;28;20432;-50
2022/10/14 09:33:16;;;;;;;28.67;20.90;;;15.70;99.90;;;;;;5014086;28;20913;-49
2022/10/14 09:35:44;;;;;;;26.87;19.23;;;15.20;99.90;;;;;;5013905;28;20498;-50
2022/10/14 09:38:12;;;;;;;31.53;18.40;;;15.50;99.90;;;;;;5014041;28;20444;-50
2022/10/14 09:40:42;;;;;;;21.60;19.33;;;15.00;99.90;;;;;;5013625;28;20432;-50
2022/10/14 09:43:16;;;;;;;20.80;17.87;;;15.60;99.90;;;;;;5013845;28;20883;-50
2022/10/14 09:45:49;;;;;;;29.10;18.10;;;15.30;99.90;;;;;;5013799;28;20447;-50
2022/10/14 09:48:18;;;;;;;22.00;18.17;;;15.30;99.90;;;;;;5013892;28;20437;-50
2022/10/14 09:50:51;;;;;;;24.50;19.40;;;15.30;99.90;;;;;;5013515;28;20444;-51
2022/10/14 09:53:25;;;;;;;24.60;18.47;;;15.30;99.90;;;;;;5013862;28;20445;-49
2022/10/14 09:55:54;;;;;;;23.30;19.20;;;15.30;99.90;;;;;;5012536;28;20563;-50
2022/10/14 09:58:29;;;;;;;28.93;20.77;;;14.80;99.90;;;;;;5012852;28;20446;-47
2022/10/14 10:00:57;;;;;;;24.30;18.93;;;15.90;99.90;;;;;;5013626;28;20442;-51
2022/10/14 10:03:26;;;;;;;24.70;19.43;;;15.30;99.90;;;;;;5013116;28;20427;-50
2022/10/14 10:06:02;;;;;;;29.20;21.67;;;15.40;99.90;;;;;;5012031;28;20979;-50
2022/10/14 10:08:29;;;;;;;21.40;18.97;;;15.30;99.90;;;;;;5013587;28;20464;-52
2022/10/14 10:11:01;;;;;;;22.87;19.03;;;15.40;99.90;;;;;;5012045;28;20545;-51
2022/10/14 10:13:34;;;;;;;25.70;19.80;;;16.00;99.90;;;;;;5013233;28;20461;-50
2022/10/14 10:16:02;;;;;;;21.47;18.90;;;15.60;99.90;;;;;;5013908;28;20538;-50
2022/10/14 10:18:29;;;;;;;24.00;20.10;;;15.60;99.90;;;;;;5013134;28;20436;-51
2022/10/14 10:21:06;;;;;;;20.40;18.07;;;15.30;99.90;;;;;;5013054;28;20774;-50
2022/10/14 10:23:35;;;;;;;28.57;20.30;;;15.60;99.90;;;;;;5013325;28;20456;-51
2022/10/14 10:26:16;;;;;;;24.67;18.27;;;15.70;99.90;;;;;;5013030;28;20470;-50
2022/10/14 10:28:47;;;;;;;24.93;18.90;;;15.80;99.90;;;;;;5012713;28;20505;-49
2022/10/14 10:31:27;;;;;;;22.60;20.20;;;15.70;99.90;;;;;;5013127;28;20557;-50
2022/10/14 10:34:00;;;;;;;23.60;19.57;;;15.70;99.90;;;;;;5012913;28;20466;-50
2022/10/14 10:36:31;;;;;;;24.23;19.37;;;15.70;99.90;;;;;;5013033;28;20480;-49
2022/10/14 10:39:01;;;;;;;21.80;18.00;;;15.90;99.90;;;;;;5012885;28;20428;-50
2022/10/14 10:41:48;;;;;;;23.33;17.57;;;15.70;99.90;;;;;;5013315;28;20416;-50
2022/10/14 10:44:39;;;;;;;26.33;20.60;;;16.00;99.90;;;;;;5013216;28;20783;-48
2022/10/14 10:47:17;;;;;;;22.77;17.13;;;16.30;99.90;;;;;;5013131;28;20874;-49
2022/10/14 10:49:58;;;;;;;20.37;18.00;;;16.20;99.90;;;;;;5012972;28;20428;-49
2022/10/14 10:52:40;;;;;;;26.50;18.27;;;16.30;99.90;;;;;;5011429;28;20460;-47
2022/10/14 10:55:17;;;;;;;23.87;17.83;;;16.40;99.90;;;;;;5011179;28;20477;-48
2022/10/14 10:57:53;;;;;;;25.17;18.67;;;16.40;99.90;;;;;;5012522;28;20432;-48
2022/10/14 11:00:22;;;;;;;20.60;18.50;;;16.50;99.90;;;;;;5011188;28;20462;-49
2022/10/14 11:03:01;;;;;;;20.40;18.17;;;16.60;99.90;;;;;;5012928;28;20812;-50
2022/10/14 11:05:46;;;;;;;22.57;20.13;;;16.60;99.90;;;;;;5012830;28;20433;-50
2022/10/14 11:14:26;;;;;;;20.10;18.00;;;16.90;99.90;;;;;;5012268;28;20461;-49
2022/10/14 11:17:00;;;;;;;22.50;19.73;;;17.10;99.90;;;;;;5012358;28;20486;-49
2022/10/14 11:19:36;;;;;;;22.77;20.20;;;17.30;99.90;;;;;;5011993;28;20432;-48
2022/10/14 11:22:12;;;;;;;25.43;20.40;;;17.30;99.90;;;;;;5010759;28;20432;-49
2022/10/14 11:24:53;;;;;;;25.30;18.70;;;17.40;99.90;;;;;;5012173;28;20487;-48
2022/10/14 11:27:27;;;;;;;20.97;18.63;;;17.40;99.90;;;;;;5011919;28;20442;-50
2022/10/14 11:30:17;;;;;;;24.57;19.03;;;17.50;99.90;;;;;;5011674;28;20807;-48
2022/10/14 11:33:06;;;;;;;22.00;19.70;;;17.60;99.90;;;;;;5001451;28;20451;-50
2022/10/14 11:35:43;;;;;;;27.17;17.83;;;17.50;99.90;;;;;;5012072;28;20486;-48
2022/10/14 11:38:24;;;;;;;20.77;17.37;;;17.30;99.90;;;;;;5012147;28;20435;-48
2022/10/14 11:41:01;;;;;;;18.67;16.67;;;17.30;99.90;;;;;;5012542;28;20466;-48
2022/10/14 11:43:38;;;;;;;22.00;16.23;;;17.50;99.90;;;;;;5010986;28;20472;-48
2022/10/14 11:46:08;;;;;;;17.90;15.23;;;17.60;99.90;;;;;;5011656;28;20430;-49
2022/10/14 11:48:39;;;;;;;19.83;16.73;;;17.70;99.90;;;;;;5011806;28;20501;-49
2022/10/14 11:51:14;;;;;;;40.37;19.97;;;17.80;99.90;;;;;;5012152;28;20441;-49
2022/10/14 11:53:49;;;;;;;24.37;17.17;;;17.70;99.90;;;;;;5011800;28;20455;-50
2022/10/14 11:56:28;;;;;;;20.70;17.10;;;17.80;99.90;;;;;;5011729;28;20466;-49
2022/10/14 11:58:58;;;;;;;22.83;17.03;;;18.00;99.90;;;;;;5011272;28;20913;-48
2022/10/14 12:01:29;;;;;;;20.57;15.47;;;17.70;99.90;;;;;;5011881;28;20901;-49
2022/10/14 12:04:04;;;;;;;17.70;15.47;;;18.00;99.90;;;;;;5010509;28;20876;-48
2022/10/14 12:06:35;;;;;;;18.87;16.60;;;17.90;99.90;;;;;;5010591;28;20475;-49
2022/10/14 12:09:06;;;;;;;16.90;15.20;;;17.90;99.90;;;;;;5011611;28;20444;-50
2022/10/14 12:11:38;;;;;;;18.30;13.87;;;17.90;99.90;;;;;;5011761;28;20538;-49
2022/10/14 12:14:12;;;;;;;26.50;14.73;;;17.90;99.90;;;;;;5011934;28;20455;-48
2022/10/14 12:16:42;;;;;;;17.37;13.60;;;17.70;99.90;;;;;;5011883;28;20470;-48
2022/10/14 12:19:14;;;;;;;17.47;14.53;;;17.80;99.90;;;;;;5011844;28;20792;-48
2022/10/14 12:21:47;;;;;;;18.57;14.20;;;17.80;99.90;;;;;;5011659;28;20787;-51
2022/10/14 12:24:18;;;;;;;18.63;13.00;;;18.20;99.90;;;;;;5010528;28;20483;-48
2022/10/14 12:26:52;;;;;;;14.63;11.70;;;17.60;99.90;;;;;;5011991;28;20775;-49
2022/10/14 12:29:21;;;;;;;18.03;14.67;;;18.00;99.90;;;;;;5009916;28;20460;-49
2022/10/14 12:31:51;;;;;;;15.63;13.87;;;18.00;99.90;;;;;;5011847;28;20506;-48
2022/10/14 12:34:37;;;;;;;16.30;13.00;;;18.10;99.90;;;;;;5011595;28;20458;-49
2022/10/14 12:37:44;;;;;;;19.30;15.10;;;18.10;99.90;;;;;;5011818;28;20850;-48
2022/10/14 12:40:28;;;;;;;15.00;13.37;;;18.10;99.90;;;;;;5010749;28;20444;-49
2022/10/14 12:43:01;;;;;;;14.20;12.00;;;18.20;99.90;;;;;;5009155;28;20496;-49
2022/10/14 12:45:29;;;;;;;15.97;14.33;;;18.20;99.90;;;;;;5011276;28;20451;-49
2022/10/14 12:48:07;;;;;;;16.03;14.33;;;17.90;99.90;;;;;;5011425;28;20443;-50
2022/10/14 12:50:39;;;;;;;19.57;14.97;;;17.90;99.90;;;;;;5010476;28;20902;-48
2022/10/14 12:53:15;;;;;;;16.20;13.20;;;17.70;99.90;;;;;;5011083;28;20510;-49
2022/10/14 12:55:49;;;;;;;16.60;13.63;;;18.20;99.90;;;;;;5014348;28;20498;-49